Time;durP1;ratioP1;P1;durP2;ratioP2;P2;SDS_P1;SDS_P2;PMS_P1;PMS_P2;Temp;Humidity;BMP_temperature;BMP_pressure;BME280_temperature;BME280_humidity;BME280_pressure;Samples;Min_cycle;Max_cycle;Signal;HPM_P1;HPM_P2
2021/11/08 00:01:10;;;;;;;34.10;22.50;;;;;;;8.27;100.00;97839.75;4925798;29;20034;-80
2021/11/08 00:03:38;;;;;;;44.67;25.98;;;;;;;8.25;100.00;97858.31;4941284;29;20118;-79
2021/11/08 00:06:05;;;;;;;41.60;24.25;;;;;;;8.24;100.00;97873.00;4921131;29;20079;-79
2021/11/08 00:08:32;;;;;;;37.78;23.85;;;;;;;8.35;100.00;97893.69;4921375;29;20087;-79
2021/11/08 00:10:57;;;;;;;36.20;23.75;;;;;;;8.35;100.00;97885.53;4924256;29;20040;-79
2021/11/08 00:13:24;;;;;;;37.95;23.88;;;;;;;8.37;100.00;97872.41;4907110;29;20035;-79
2021/11/08 00:18:31;;;;;;;36.75;24.00;;;;;;;8.27;100.00;97850.66;4920429;29;20024;-79
2021/11/08 00:20:57;;;;;;;36.03;25.30;;;;;;;8.20;100.00;97871.97;4903859;29;20028;-78
2021/11/08 00:23:23;;;;;;;38.50;24.35;;;;;;;8.17;100.00;97886.16;4902626;29;20068;-79
2021/11/08 00:25:48;;;;;;;37.47;24.27;;;;;;;8.11;100.00;97876.38;4921560;29;20039;-79
2021/11/08 00:28:16;;;;;;;78.63;39.20;;;;;;;8.23;100.00;97863.22;4922824;29;20028;-79
2021/11/08 00:30:43;;;;;;;143.75;67.28;;;;;;;8.13;100.00;97860.56;4922976;29;20087;-79
2021/11/08 00:33:17;;;;;;;152.73;67.82;;;;;;;8.23;100.00;97859.69;4924029;29;20096;-79
2021/11/08 00:35:48;;;;;;;151.32;64.82;;;;;;;8.12;100.00;97850.75;4923710;29;20016;-80
2021/11/08 00:38:13;;;;;;;104.63;49.40;;;;;;;8.23;100.00;97871.41;4909888;29;20047;-80
2021/11/08 00:40:39;;;;;;;99.13;46.90;;;;;;;8.25;100.00;97852.03;4929415;29;20028;-80
2021/11/08 00:43:06;;;;;;;81.15;39.63;;;;;;;8.27;100.00;97845.19;4912517;29;20056;-80
2021/11/08 00:45:32;;;;;;;57.97;33.00;;;;;;;8.15;100.00;97852.09;4929923;29;20545;-79
2021/11/08 00:47:58;;;;;;;54.38;29.50;;;;;;;8.21;100.00;97862.69;4915051;29;20028;-79
2021/11/08 00:50:24;;;;;;;54.28;30.30;;;;;;;8.21;100.00;97865.41;4933357;29;20043;-79
2021/11/08 00:52:50;;;;;;;62.72;31.90;;;;;;;8.22;100.00;97875.22;4935190;29;20032;-80
2021/11/08 00:55:16;;;;;;;59.95;32.83;;;;;;;8.25;100.00;97882.81;4930021;29;20032;-80
2021/11/08 00:57:45;;;;;;;62.83;31.20;;;;;;;8.24;100.00;97883.91;4929131;29;20038;-80
2021/11/08 01:00:13;;;;;;;48.63;29.45;;;;;;;8.20;100.00;97871.97;4931800;29;20028;-79
2021/11/08 01:02:40;;;;;;;49.63;29.08;;;;;;;8.19;100.00;97872.25;4930700;29;20021;-79
2021/11/08 01:05:08;;;;;;;46.35;26.33;;;;;;;8.25;100.00;97874.66;4928994;29;20028;-79
2021/11/08 01:07:34;;;;;;;43.90;26.52;;;;;;;8.27;100.00;97867.00;4925655;29;20486;-80
2021/11/08 01:10:00;;;;;;;46.15;25.98;;;;;;;8.33;100.00;97871.34;4923561;29;20103;-79
2021/11/08 01:12:27;;;;;;;39.90;25.25;;;;;;;8.33;100.00;97878.72;4923627;29;20036;-79
2021/11/08 01:14:54;;;;;;;39.92;24.58;;;;;;;8.37;100.00;97885.22;4920366;29;20032;-78
2021/11/08 01:17:20;;;;;;;45.67;26.50;;;;;;;8.37;100.00;97885.22;4922778;29;20029;-79
2021/11/08 01:19:47;;;;;;;43.92;25.73;;;;;;;8.33;100.00;97898.59;4923570;29;20164;-79
2021/11/08 01:22:17;;;;;;;41.08;24.80;;;;;;;8.33;100.00;97892.34;4920995;29;20032;-78
2021/11/08 01:25:01;;;;;;;39.88;25.17;;;;;;;8.28;100.00;97865.94;4922580;29;20036;-80
2021/11/08 01:27:37;;;;;;;36.25;22.95;;;;;;;8.14;100.00;97845.84;4928934;29;20132;-80
2021/11/08 01:30:09;;;;;;;38.30;23.42;;;;;;;8.09;100.00;97834.97;4930987;29;20032;-78
2021/11/08 01:32:35;;;;;;;36.22;23.52;;;;;;;8.03;100.00;97834.19;4923698;29;20122;-79
2021/11/08 01:35:01;;;;;;;37.38;24.15;;;;;;;8.10;100.00;97847.50;4927363;29;20063;-80
2021/11/08 01:37:28;;;;;;;35.47;24.05;;;;;;;8.08;100.00;97863.34;4925551;29;20034;-79
2021/11/08 01:39:54;;;;;;;38.20;23.98;;;;;;;8.14;100.00;97862.19;4918515;29;20039;-79
2021/11/08 01:42:20;;;;;;;35.72;23.90;;;;;;;8.18;100.00;97865.97;4919329;29;20056;-79
2021/11/08 01:44:45;;;;;;;37.22;23.50;;;;;;;8.19;100.00;97861.34;4902814;29;20042;-79
2021/11/08 01:47:12;;;;;;;32.45;21.73;;;;;;;8.10;100.00;97863.84;4918960;29;20068;-79
2021/11/08 01:49:40;;;;;;;33.85;23.00;;;;;;;8.05;100.00;97878.31;4928579;29;20028;-80
2021/11/08 01:52:07;;;;;;;35.25;23.23;;;;;;;8.04;100.00;97886.75;4911540;29;20112;-80
2021/11/08 01:54:33;;;;;;;39.75;23.77;;;;;;;8.05;100.00;97894.66;4927655;29;20024;-78
2021/11/08 01:56:59;;;;;;;41.80;23.52;;;;;;;8.07;100.00;97891.66;4907303;29;20040;-79
2021/11/08 01:59:26;;;;;;;35.33;23.33;;;;;;;8.02;100.00;97889.75;4927006;29;20024;-79
2021/11/08 02:01:54;;;;;;;37.25;24.13;;;;;;;8.07;100.00;97902.56;4911721;29;20481;-79
2021/11/08 02:04:20;;;;;;;39.35;23.67;;;;;;;8.03;100.00;97907.75;4930855;29;20020;-81
2021/11/08 02:06:46;;;;;;;35.08;23.20;;;;;;;8.04;100.00;97933.06;4927460;29;20035;-79
2021/11/08 02:09:12;;;;;;;35.70;23.83;;;;;;;7.98;100.00;97955.97;4924972;29;20065;-80
2021/11/08 02:11:38;;;;;;;35.85;23.20;;;;;;;8.04;100.00;97961.13;4908604;29;20076;-80
2021/11/08 02:14:04;;;;;;;33.75;22.90;;;;;;;8.06;100.00;97922.69;4932962;29;20024;-80
2021/11/08 02:16:30;;;;;;;38.75;23.33;;;;;;;7.96;100.00;97918.13;4918285;29;20048;-80
2021/11/08 02:18:57;;;;;;;31.73;21.58;;;;;;;7.96;100.00;97930.91;4919056;29;20021;-79
2021/11/08 02:21:24;;;;;;;38.25;22.38;;;;;;;7.98;100.00;97942.34;4916287;29;20449;-77
2021/11/08 02:23:50;;;;;;;33.38;22.13;;;;;;;8.03;100.00;97936.88;4915752;29;20063;-77
2021/11/08 02:26:17;;;;;;;35.28;21.58;;;;;;;8.01;100.00;97928.19;4915594;29;20055;-77
2021/11/08 02:28:44;;;;;;;36.72;23.02;;;;;;;7.96;100.00;97917.28;4914877;29;20119;-77
2021/11/08 02:31:17;;;;;;;32.95;20.85;;;;;;;7.84;100.00;97912.19;4915595;29;20175;-77
2021/11/08 02:33:47;;;;;;;32.60;21.55;;;;;;;7.75;100.00;97911.13;4916799;29;20039;-77
2021/11/08 02:36:13;;;;;;;37.15;22.58;;;;;;;7.78;100.00;97907.03;4897768;29;20032;-77
2021/11/08 02:38:47;;;;;;;35.30;22.55;;;;;;;7.82;100.00;97922.53;4915429;29;20031;-78
2021/11/08 02:41:15;;;;;;;34.35;21.63;;;;;;;7.79;100.00;97920.38;4915559;29;20039;-77
2021/11/08 02:43:40;;;;;;;33.33;22.30;;;;;;;7.77;100.00;97927.19;4915106;29;20957;-77
2021/11/08 02:46:12;;;;;;;32.45;21.55;;;;;;;7.75;100.00;97923.91;4915543;29;20051;-77
2021/11/08 02:48:42;;;;;;;35.92;20.48;;;;;;;7.72;100.00;97908.97;4915260;29;20020;-77
2021/11/08 02:51:18;;;;;;;34.42;23.27;;;;;;;7.57;100.00;97902.75;4915480;29;20046;-77
2021/11/08 02:53:46;;;;;;;34.33;23.02;;;;;;;7.61;100.00;97899.22;4899619;29;20538;-76
2021/11/08 02:56:13;;;;;;;33.60;23.10;;;;;;;7.62;100.00;97913.63;4916220;29;20032;-77
2021/11/08 02:58:42;;;;;;;40.97;25.23;;;;;;;7.62;100.00;97925.31;4917285;29;20035;-77
2021/11/08 03:01:09;;;;;;;33.75;22.50;;;;;;;7.65;100.00;97934.84;4916837;29;20035;-77
2021/11/08 03:03:44;;;;;;;34.78;23.08;;;;;;;7.66;100.00;97940.03;4916298;29;20032;-78
2021/11/08 03:06:23;;;;;;;39.13;24.25;;;;;;;7.68;100.00;97942.44;4898022;29;20028;-77
2021/11/08 03:08:50;;;;;;;33.53;22.48;;;;;;;7.68;100.00;97951.44;4914816;29;20028;-77
2021/11/08 03:11:16;;;;;;;39.47;25.02;;;;;;;7.74;100.00;97957.69;4915044;29;20040;-75
2021/11/08 03:13:50;;;;;;;38.33;24.13;;;;;;;7.78;100.00;97961.47;4914913;29;20032;-77
2021/11/08 03:16:36;;;;;;;40.95;25.67;;;;;;;7.80;100.00;97964.75;4914810;29;20390;-78
2021/11/08 03:19:13;;;;;;;;;;;;;;;7.79;100.00;97955.78;4914972;29;20039;-78
2021/11/08 03:21:38;;;;;;;37.05;23.33;;;;;;;7.91;100.00;97950.81;4915135;29;20368;-78
2021/11/08 03:24:05;;;;;;;39.22;25.45;;;;;;;7.88;100.00;97959.56;4898168;29;20050;-77
2021/11/08 03:26:40;;;;;;;42.13;26.48;;;;;;;7.61;100.00;97947.38;4914549;29;20027;-77
2021/11/08 03:29:06;;;;;;;42.50;29.17;;;;;;;7.63;100.00;97948.75;4897994;29;20058;-78
2021/11/08 03:31:34;;;;;;;45.15;31.02;;;;;;;7.68;100.00;97975.13;4915030;29;20047;-77
2021/11/08 03:34:00;;;;;;;43.47;29.15;;;;;;;7.70;100.00;97987.38;4915295;29;20032;-76
2021/11/08 03:36:25;;;;;;;41.58;29.90;;;;;;;7.73;100.00;97996.91;4897293;29;20083;-77
2021/11/08 03:38:51;;;;;;;40.20;28.67;;;;;;;7.82;100.00;98011.56;4914417;29;20032;-77
2021/11/08 03:41:16;;;;;;;41.65;28.17;;;;;;;7.93;100.00;98026.78;4915251;29;20036;-77
2021/11/08 03:43:42;;;;;;;39.95;27.17;;;;;;;7.94;100.00;98031.16;4916737;29;20048;-77
2021/11/08 03:46:08;;;;;;;41.05;28.27;;;;;;;7.98;100.00;98034.97;4900298;29;20039;-78
2021/11/08 03:48:34;;;;;;;42.95;26.63;;;;;;;7.99;100.00;98033.84;4916877;29;20070;-78
2021/11/08 03:51:00;;;;;;;42.28;27.90;;;;;;;8.01;100.00;98037.94;4914595;29;20039;-78
2021/11/08 03:53:25;;;;;;;38.38;27.05;;;;;;;8.08;100.00;98048.56;4914916;29;20028;-78
2021/11/08 03:55:53;;;;;;;42.15;28.02;;;;;;;8.01;100.00;98046.13;4914446;29;20024;-77
2021/11/08 03:58:19;;;;;;;40.47;26.77;;;;;;;7.94;100.00;98058.38;4897616;29;20035;-77
2021/11/08 04:00:45;;;;;;;41.00;28.75;;;;;;;7.94;100.00;98056.47;4914580;29;20024;-78
2021/11/08 04:03:11;;;;;;;45.10;28.20;;;;;;;7.95;100.00;98054.56;4914608;29;20083;-78
2021/11/08 04:05:39;;;;;;;46.33;29.90;;;;;;;7.97;100.00;98057.84;4914363;29;20059;-77
2021/11/08 04:08:11;;;;;;;44.75;30.23;;;;;;;7.92;100.00;98076.91;4916904;29;20032;-79
2021/11/08 04:10:38;;;;;;;46.63;29.65;;;;;;;7.94;100.00;98107.41;4922973;29;20032;-80
2021/11/08 04:13:05;;;;;;;40.45;26.30;;;;;;;8.03;100.00;98122.91;4925522;29;20032;-79
2021/11/08 04:15:38;;;;;;;42.05;28.15;;;;;;;8.06;100.00;98127.00;4927707;29;20036;-79
2021/11/08 04:18:16;;;;;;;41.67;28.08;;;;;;;8.01;100.00;98130.56;4927829;29;20032;-81
2021/11/08 04:20:45;;;;;;;37.85;26.45;;;;;;;8.02;100.00;98128.63;4934775;29;20060;-80
2021/11/08 04:23:13;;;;;;;40.22;28.10;;;;;;;8.03;100.00;98117.47;4953224;29;20043;-79
2021/11/08 04:25:40;;;;;;;35.33;24.42;;;;;;;8.02;100.00;98093.22;4933944;29;20019;-76
2021/11/08 04:28:06;;;;;;;33.53;23.15;;;;;;;8.01;100.00;98086.16;4958706;29;20099;-74
2021/11/08 04:30:33;;;;;;;30.08;21.05;;;;;;;7.94;100.00;98091.88;4960068;28;20051;-75
2021/11/08 04:35:42;;;;;;;21.55;14.02;;;;;;;7.84;100.00;98113.69;4957554;29;20038;-82
2021/11/08 04:54:34;;;;;;;16.52;7.57;;;;;;;7.60;100.00;98152.63;4962447;28;20019;-75
2021/11/08 05:31:42;;;;;;;7.28;4.85;;;;;;;7.06;100.00;98209.34;4961308;28;20043;-78
2021/11/08 05:34:07;;;;;;;55.15;31.48;;;;;;;7.17;100.00;98222.75;4956684;29;20043;-80
2021/11/08 05:36:33;;;;;;;6.45;4.40;;;;;;;7.15;100.00;98224.88;4957723;29;20118;-79
2021/11/08 05:39:00;;;;;;;7.53;4.10;;;;;;;7.11;100.00;98214.81;4943086;29;20031;-75
2021/11/08 05:41:26;;;;;;;8.07;4.47;;;;;;;7.12;100.00;98219.97;4945415;29;20058;-74
2021/11/08 05:43:51;;;;;;;8.30;4.25;;;;;;;7.12;100.00;98230.03;4944094;29;20036;-78
2021/11/08 05:46:19;;;;;;;8.00;4.30;;;;;;;7.11;100.00;98244.75;4957667;28;20111;-79
2021/11/08 05:48:46;;;;;;;7.53;4.13;;;;;;;7.12;100.00;98258.06;4956742;28;20008;-80
2021/11/08 05:51:11;;;;;;;7.43;4.20;;;;;;;7.10;100.00;98271.13;4951926;29;20036;-79
2021/11/08 05:53:37;;;;;;;10.50;5.40;;;;;;;7.09;100.00;98284.97;4937390;29;20027;-80
2021/11/08 05:56:16;;;;;;;9.50;4.88;;;;;;;7.06;100.00;98294.47;4948535;29;20034;-79
2021/11/08 06:50:39;;;;;;;5.60;3.58;;;;;;;6.73;100.00;98392.69;4948513;29;20135;-75
2021/11/08 06:53:07;;;;;;;6.82;3.50;;;;;;;6.72;100.00;98385.59;4924384;29;20035;-81
2021/11/08 06:55:33;;;;;;;6.13;3.78;;;;;;;6.69;100.00;98367.09;4955889;28;20095;-73
2021/11/08 06:58:04;;;;;;;7.18;3.80;;;;;;;6.77;100.00;98363.88;4944118;28;20032;-74
2021/11/08 07:00:31;;;;;;;7.75;3.53;;;;;;;6.71;100.00;98370.38;4944123;29;20019;-74
2021/11/08 07:02:57;;;;;;;6.47;4.05;;;;;;;6.78;100.00;98377.25;4960296;28;20020;-75
2021/11/08 07:05:22;;;;;;;7.20;4.38;;;;;;;6.76;100.00;98378.59;4960331;28;20036;-75
2021/11/08 07:07:48;;;;;;;6.40;3.70;;;;;;;6.78;100.00;98374.53;4944225;28;20079;-74
2021/11/08 07:10:19;;;;;;;37.65;19.65;;;;;;;6.83;100.00;98384.59;4943914;29;20023;-75
2021/11/08 07:12:45;;;;;;;14.95;10.02;;;;;;;6.84;100.00;98397.13;4944045;29;20023;-76
2021/11/08 07:15:10;;;;;;;43.05;25.13;;;;;;;6.86;100.00;98403.13;4960285;28;20016;-74
2021/11/08 07:17:36;;;;;;;9.20;4.97;;;;;;;6.88;100.00;98403.69;4960089;28;20008;-77
2021/11/08 07:20:02;;;;;;;62.17;34.05;;;;;;;6.87;100.00;98407.47;4950309;29;20031;-80
2021/11/08 07:22:27;;;;;;;7.15;3.47;;;;;;;6.82;100.00;98404.72;4952119;28;20032;-74
2021/11/08 07:24:53;;;;;;;4.75;2.85;;;;;;;6.87;100.00;98396.59;4960598;28;20019;-74
2021/11/08 07:27:19;;;;;;;5.57;2.83;;;;;;;6.89;100.00;98389.03;4960127;28;20040;-77
2021/11/08 07:29:44;;;;;;;4.93;2.72;;;;;;;6.82;100.00;98393.84;4959659;28;20079;-76
2021/11/08 07:32:10;;;;;;;6.22;2.92;;;;;;;6.79;100.00;98413.41;4960196;28;20035;-78
2021/11/08 07:34:36;;;;;;;8.32;2.80;;;;;;;6.78;100.00;98423.44;4942849;29;20051;-75
2021/11/08 07:37:01;;;;;;;4.75;2.92;;;;;;;6.82;100.00;98421.03;4943869;28;20008;-75
2021/11/08 07:39:27;;;;;;;5.30;2.92;;;;;;;6.83;100.00;98411.78;4943501;29;20020;-76
2021/11/08 07:41:53;;;;;;;4.85;3.28;;;;;;;6.82;100.00;98430.03;4943550;28;20117;-74
2021/11/08 07:44:21;;;;;;;12.68;3.17;;;;;;;6.83;100.00;98447.13;4960101;28;20015;-76
2021/11/08 07:46:47;;;;;;;5.22;3.20;;;;;;;6.85;100.00;98436.84;4958953;29;20085;-79
2021/11/08 07:49:12;;;;;;;6.80;3.03;;;;;;;6.79;100.00;98429.72;4948217;29;20501;-78
2021/11/08 07:51:38;;;;;;;5.43;2.80;;;;;;;6.83;100.00;98433.53;4939911;29;20054;-80
2021/11/08 07:54:03;;;;;;;4.47;2.80;;;;;;;6.79;100.00;98429.72;4924635;29;20020;-78
2021/11/08 07:56:29;;;;;;;6.03;3.40;;;;;;;6.85;100.00;98447.69;4940415;29;20079;-77
2021/11/08 07:58:55;;;;;;;7.65;3.35;;;;;;;6.84;100.00;98440.63;4959608;28;20020;-74
2021/11/08 08:01:21;;;;;;;7.50;3.75;;;;;;;6.88;100.00;98437.13;4958307;28;20036;-77
2021/11/08 08:03:47;;;;;;;7.70;4.13;;;;;;;6.83;100.00;98428.09;4959592;28;20039;-74
2021/11/08 08:06:15;;;;;;;6.72;3.72;;;;;;;6.91;100.00;98442.06;4961029;29;20032;-79
2021/11/08 08:08:42;;;;;;;5.43;3.00;;;;;;;6.85;100.00;98439.56;4942294;29;20031;-81
2021/11/08 08:11:08;;;;;;;6.00;3.40;;;;;;;6.79;100.00;98438.69;4937419;29;20036;-80
2021/11/08 08:13:36;;;;;;;4.85;2.90;;;;;;;6.78;100.00;98442.47;4947292;29;20031;-78
2021/11/08 08:16:08;;;;;;;5.32;3.00;;;;;;;6.82;100.00;98450.94;4939383;29;20017;-80
2021/11/08 08:18:37;;;;;;;6.25;2.70;;;;;;;6.74;100.00;98452.22;4938524;29;20008;-77
2021/11/08 08:21:03;;;;;;;6.47;3.05;;;;;;;6.74;100.00;98445.97;4941132;29;20056;-78
2021/11/08 08:23:29;;;;;;;5.53;2.88;;;;;;;6.76;100.00;98439.22;4958789;29;20019;-82
2021/11/08 08:25:54;;;;;;;3.38;2.25;;;;;;;6.73;100.00;98438.91;4954861;29;20027;-81
2021/11/08 08:28:20;;;;;;;6.60;3.05;;;;;;;6.66;100.00;98438.28;4956162;29;20020;-81
2021/11/08 08:30:46;;;;;;;5.88;2.95;;;;;;;6.77;100.00;98440.00;4942730;29;20016;-78
2021/11/08 08:33:12;;;;;;;5.53;3.35;;;;;;;6.89;100.00;98454.28;4945008;29;20004;-76
2021/11/08 08:35:40;;;;;;;5.10;2.70;;;;;;;6.91;100.00;98446.66;4938730;29;20059;-80
2021/11/08 08:38:09;;;;;;;6.07;2.75;;;;;;;6.99;100.00;98462.50;4955857;29;20028;-80
2021/11/08 08:40:35;;;;;;;6.70;3.10;;;;;;;7.15;100.00;98458.00;4960098;28;20036;-78
2021/11/08 08:43:02;;;;;;;6.45;3.40;;;;;;;7.23;100.00;98463.78;4942527;28;20044;-78
2021/11/08 08:45:28;;;;;;;6.03;3.28;;;;;;;7.25;100.00;98464.34;4959564;28;20023;-79
2021/11/08 08:47:54;;;;;;;11.13;3.60;;;;;;;7.27;100.00;98475.75;4962459;28;20036;-78
2021/11/08 08:50:20;;;;;;;4.80;2.83;;;;;;;7.38;100.00;98474.78;4961922;29;20036;-79
2021/11/08 08:52:46;;;;;;;5.18;2.80;;;;;;;7.36;100.00;98482.34;4960606;28;20079;-81
2021/11/08 08:55:11;;;;;;;4.72;2.42;;;;;;;7.25;100.00;98480.66;4957019;29;20138;-79
2021/11/08 08:57:37;;;;;;;4.57;2.78;;;;;;;7.24;100.00;98473.56;4943905;29;20028;-78
2021/11/08 09:00:06;;;;;;;6.13;3.17;;;;;;;7.20;100.00;98472.47;4944683;29;20038;-80
2021/11/08 09:02:32;;;;;;;6.57;3.50;;;;;;;7.21;100.00;98468.66;4938676;29;20016;-80
2021/11/08 09:04:57;;;;;;;5.15;2.20;;;;;;;7.23;100.00;98466.50;4923619;29;20043;-81
2021/11/08 09:07:23;;;;;;;9.00;2.45;;;;;;;7.34;100.00;98462.75;4951231;29;20008;-80
2021/11/08 09:09:49;;;;;;;5.35;2.20;;;;;;;7.42;100.00;98464.97;4940699;29;20056;-79
2021/11/08 09:12:14;;;;;;;4.93;2.22;;;;;;;7.41;100.00;98470.69;4942449;29;20028;-78
2021/11/08 09:14:40;;;;;;;6.43;2.80;;;;;;;7.48;100.00;98468.59;4932355;29;20071;-78
2021/11/08 09:17:06;;;;;;;6.05;2.90;;;;;;;7.47;100.00;98465.03;4937759;29;20028;-80
2021/11/08 09:19:33;;;;;;;5.20;2.70;;;;;;;7.48;100.00;98485.72;4939164;29;20028;-81
2021/11/08 09:21:59;;;;;;;4.53;2.20;;;;;;;7.43;100.00;98487.56;4941032;29;20024;-80
2021/11/08 09:24:24;;;;;;;6.60;2.70;;;;;;;7.53;100.00;98493.09;4942570;29;20047;-79
2021/11/08 09:26:50;;;;;;;4.68;2.40;;;;;;;7.48;100.00;98496.63;4941051;29;20072;-82
2021/11/08 09:29:18;;;;;;;4.00;2.30;;;;;;;7.49;100.00;98495.53;4938372;29;20013;-76
2021/11/08 09:31:45;;;;;;;4.32;2.42;;;;;;;7.58;100.00;98489.59;4938081;29;20422;-78
2021/11/08 09:34:14;;;;;;;5.35;2.58;;;;;;;7.67;100.00;98497.00;4923640;29;20031;-81
2021/11/08 09:36:40;;;;;;;7.47;2.80;;;;;;;7.70;100.00;98499.22;4941569;29;20015;-78
2021/11/08 09:39:34;;;;;;;4.68;2.58;;;;;;;7.85;100.00;98502.00;4924555;29;20035;-79
2021/11/08 09:42:02;;;;;;;5.47;3.05;;;;;;;7.92;100.00;98504.50;4945882;29;20079;-77
2021/11/08 09:44:27;;;;;;;4.90;3.10;;;;;;;7.85;100.00;98506.63;4940591;28;20033;-80
2021/11/08 09:46:55;;;;;;;7.43;2.85;;;;;;;7.78;100.00;98495.97;4953862;29;20024;-80
2021/11/08 09:49:21;;;;;;;5.88;2.97;;;;;;;7.74;100.00;98499.47;4956040;28;20374;-77
2021/11/08 09:51:49;;;;;;;4.55;2.88;;;;;;;7.76;100.00;98498.16;4941681;29;20023;-78
2021/11/08 09:54:16;;;;;;;5.80;2.63;;;;;;;7.66;100.00;98502.69;4938961;29;20016;-81
2021/11/08 09:56:44;;;;;;;6.25;2.90;;;;;;;7.62;100.00;98507.03;4935298;29;20084;-80
2021/11/08 09:59:11;;;;;;;4.90;3.15;;;;;;;7.58;100.00;98500.50;4915179;29;20127;-78
2021/11/08 10:01:39;;;;;;;6.72;3.53;;;;;;;7.51;100.00;98500.72;4929229;29;20043;-80
2021/11/08 10:04:06;;;;;;;7.57;3.10;;;;;;;7.60;100.00;98503.75;4915323;29;20036;-80
2021/11/08 10:06:32;;;;;;;11.43;4.03;;;;;;;7.67;100.00;98510.63;4920846;29;20064;-81
2021/11/08 10:08:59;;;;;;;5.80;3.58;;;;;;;7.71;100.00;98505.44;4920174;29;20338;-80
2021/11/08 10:11:25;;;;;;;4.85;2.90;;;;;;;7.73;100.00;98506.03;4916898;29;20036;-80
2021/11/08 10:13:52;;;;;;;4.88;2.92;;;;;;;7.82;100.00;98512.59;4918484;29;20035;-80
2021/11/08 10:16:33;;;;;;;6.90;2.88;;;;;;;7.85;100.00;98509.34;4948315;29;20043;-80
2021/11/08 10:19:03;;;;;;;5.20;2.65;;;;;;;8.03;100.00;98496.09;4948047;29;20048;-81
2021/11/08 10:21:30;;;;;;;4.50;2.42;;;;;;;8.18;100.00;98508.97;4937165;29;20032;-81
2021/11/08 10:23:57;;;;;;;6.35;2.47;;;;;;;8.19;100.00;98513.34;4938674;29;20500;-80
2021/11/08 10:26:26;;;;;;;5.18;2.45;;;;;;;8.29;100.00;98512.59;4951960;29;20027;-80
2021/11/08 10:28:57;;;;;;;4.60;2.75;;;;;;;8.26;100.00;98507.66;4937135;29;20032;-80
2021/11/08 10:31:30;;;;;;;5.93;2.90;;;;;;;8.26;100.00;98507.66;4955551;29;20062;-80
2021/11/08 10:34:01;;;;;;;5.00;2.60;;;;;;;8.23;100.00;98511.72;4933637;29;20068;-80
2021/11/08 10:36:26;;;;;;;5.82;3.00;;;;;;;8.12;100.00;98515.47;4938701;29;20036;-79
2021/11/08 10:38:54;;;;;;;4.25;2.35;;;;;;;8.06;100.00;98519.25;4940434;29;20031;-80
2021/11/08 10:41:19;;;;;;;6.15;2.90;;;;;;;8.08;100.00;98522.56;4926123;29;20119;-76
2021/11/08 10:43:49;;;;;;;5.47;2.17;;;;;;;8.05;100.00;98520.34;4938335;29;20059;-77
2021/11/08 10:46:21;;;;;;;5.53;2.05;;;;;;;7.95;100.00;98514.88;4940564;29;20056;-80
2021/11/08 10:49:00;;;;;;;3.88;2.17;;;;;;;7.84;100.00;98515.88;4941549;29;20028;-79
2021/11/08 10:51:29;;;;;;;4.53;2.67;;;;;;;7.81;100.00;98513.69;4930071;29;20031;-80
2021/11/08 10:54:10;;;;;;;5.20;2.40;;;;;;;7.87;100.00;98507.19;4952767;29;20043;-80
2021/11/08 10:56:37;;;;;;;4.03;2.28;;;;;;;7.88;100.00;98506.09;4949171;29;20038;-80
2021/11/08 10:59:26;;;;;;;5.35;2.40;;;;;;;7.85;100.00;98502.00;4950146;29;20016;-81
2021/11/08 11:01:55;;;;;;;6.13;2.95;;;;;;;7.83;100.00;98492.47;4949192;29;20055;-78
2021/11/08 11:04:40;;;;;;;5.47;2.38;;;;;;;7.87;100.00;98494.38;4947091;29;20051;-78
2021/11/08 11:07:10;;;;;;;4.75;2.35;;;;;;;7.86;100.00;98498.19;4938783;29;20040;-78
2021/11/08 11:09:37;;;;;;;5.35;2.30;;;;;;;7.79;100.00;98494.91;4933283;29;20409;-79
2021/11/08 11:12:15;;;;;;;6.50;3.22;;;;;;;7.74;100.00;98503.03;4941042;29;21221;-80
2021/11/08 11:14:45;;;;;;;5.78;2.42;;;;;;;7.80;100.00;98498.44;4945009;29;20042;-80
2021/11/08 11:17:38;;;;;;;18.42;11.00;;;;;;;7.79;100.00;98492.19;4924864;29;20032;-80
2021/11/08 11:20:13;;;;;;;9.48;4.97;;;;;;;7.71;100.00;98492.66;4913761;29;20139;-80
2021/11/08 11:22:43;;;;;;;6.83;3.90;;;;;;;7.81;100.00;98484.56;4961895;29;20067;-80
2021/11/08 11:25:11;;;;;;;4.40;2.33;;;;;;;7.83;100.00;98474.19;4947038;29;20032;-80
2021/11/08 11:27:48;;;;;;;3.95;2.20;;;;;;;7.87;100.00;98471.78;4943224;29;20043;-80
2021/11/08 11:30:18;;;;;;;4.72;2.53;;;;;;;7.90;100.00;98466.63;4934817;29;20035;-80
2021/11/08 11:32:54;;;;;;;6.25;2.17;;;;;;;7.92;100.00;98471.81;4911934;29;20481;-79
2021/11/08 11:35:23;;;;;;;6.28;2.72;;;;;;;7.96;100.00;98472.91;4948082;29;20087;-81
2021/11/08 11:38:08;;;;;;;5.30;2.75;;;;;;;7.99;100.00;98469.66;4939574;29;20107;-79
2021/11/08 11:40:42;;;;;;;4.13;2.50;;;;;;;8.08;100.00;98479.78;4953336;29;20038;-81
2021/11/08 11:43:10;;;;;;;5.57;2.78;;;;;;;8.17;100.00;98477.38;4940527;29;20095;-80
2021/11/08 11:45:53;;;;;;;7.35;2.60;;;;;;;8.01;100.00;98479.22;4935928;29;20032;-80
2021/11/08 11:48:22;;;;;;;6.55;2.78;;;;;;;7.97;100.00;98477.28;4917127;29;20040;-80
2021/11/08 11:50:48;;;;;;;5.38;2.80;;;;;;;7.91;100.00;98468.28;4930177;29;20039;-79
2021/11/08 11:53:14;;;;;;;5.43;1.80;;;;;;;7.91;100.00;98467.44;4941936;29;20023;-81
2021/11/08 11:55:41;;;;;;;2.78;1.67;;;;;;;8.07;100.00;98459.09;4933739;29;20032;-81
2021/11/08 11:58:07;;;;;;;3.63;1.90;;;;;;;8.27;100.00;98452.84;4937387;29;20060;-80
2021/11/08 12:00:37;;;;;;;4.35;2.38;;;;;;;8.46;100.00;98450.50;4940802;29;20114;-79
2021/11/08 12:03:04;;;;;;;3.42;1.92;;;;;;;8.40;100.00;98438.75;4938609;29;20094;-79
2021/11/08 12:05:30;;;;;;;6.90;1.77;;;;;;;8.17;100.00;98443.84;4947335;29;20027;-80
2021/11/08 12:07:58;;;;;;;3.85;2.00;;;;;;;8.38;100.00;98451.84;4945927;29;20063;-80
2021/11/08 12:10:24;;;;;;;5.22;1.88;;;;;;;8.32;100.00;98446.66;4936094;29;20046;-80
2021/11/08 12:12:49;;;;;;;3.97;2.05;;;;;;;8.41;100.00;98442.31;4938125;29;20024;-80
2021/11/08 12:15:23;;;;;;;3.97;1.88;;;;;;;8.51;100.00;98434.97;4936130;29;20040;-81
2021/11/08 12:17:49;;;;;;;4.38;2.25;;;;;;;8.39;100.00;98436.31;4946399;29;20051;-80
2021/11/08 12:20:18;;;;;;;5.10;2.35;;;;;;;8.58;100.00;98430.06;4943670;29;20035;-80
2021/11/08 12:22:44;;;;;;;5.55;2.58;;;;;;;8.56;100.00;98437.69;4931086;29;20095;-79
2021/11/08 12:25:13;;;;;;;4.13;1.92;;;;;;;8.52;100.00;98431.16;4916708;29;20019;-80
2021/11/08 12:27:50;;;;;;;4.78;2.47;;;;;;;8.53;100.00;98426.50;4929849;29;20059;-81
2021/11/08 12:30:31;;;;;;;5.57;2.67;;;;;;;8.50;100.00;98418.88;4931276;29;20087;-78
2021/11/08 12:32:59;;;;;;;4.50;2.08;;;;;;;8.54;100.00;98423.53;4934293;29;20071;-81
2021/11/08 12:35:38;;;;;;;9.85;2.92;;;;;;;8.44;100.00;98415.34;4909262;29;20028;-79
2021/11/08 12:38:25;;;;;;;8.55;3.10;;;;;;;8.41;100.00;98410.44;4927815;29;20034;-79
2021/11/08 12:41:09;;;;;;;4.25;1.98;;;;;;;8.51;100.00;98413.16;4934987;29;20489;-81
2021/11/08 12:43:36;;;;;;;3.03;1.75;;;;;;;8.49;100.00;98418.06;4908377;29;20550;-80
2021/11/08 12:46:16;;;;;;;2.80;1.65;;;;;;;8.45;100.00;98411.53;4899132;29;20031;-80
2021/11/08 12:48:42;;;;;;;3.05;1.50;;;;;;;8.26;100.00;98409.53;4919089;29;20016;-81
2021/11/08 12:51:10;;;;;;;9.80;3.95;;;;;;;8.29;100.00;98411.75;4908150;29;20571;-79
2021/11/08 12:53:47;;;;;;;27.75;8.05;;;;;;;8.15;100.00;98403.25;4907016;29;20039;-78
2021/11/08 12:56:26;;;;;;;10.02;4.03;;;;;;;8.22;100.00;98411.97;4907552;29;20421;-79
2021/11/08 12:59:03;;;;;;;4.60;2.28;;;;;;;8.24;100.00;98407.06;4907074;29;20120;-78
2021/11/08 13:01:43;;;;;;;3.58;1.65;;;;;;;8.28;100.00;98402.75;4910562;29;20032;-78
2021/11/08 13:04:11;;;;;;;4.85;2.45;;;;;;;8.25;100.00;98397.81;4910454;29;20056;-79
2021/11/08 13:06:37;;;;;;;4.03;1.95;;;;;;;8.22;100.00;98398.34;4908188;29;20435;-78
2021/11/08 13:09:10;;;;;;;6.05;2.58;;;;;;;8.24;100.00;98398.91;4912762;29;20121;-79
2021/11/08 13:11:44;;;;;;;4.50;2.17;;;;;;;8.23;100.00;98400.00;4899851;29;20455;-79
2021/11/08 13:14:50;;;;;;;4.18;2.53;;;;;;;8.26;100.00;98401.38;4900403;29;20036;-80
2021/11/08 13:17:21;;;;;;;6.90;2.72;;;;;;;8.34;100.00;98395.41;4833508;29;20057;-78
2021/11/08 13:19:56;;;;;;;3.30;1.70;;;;;;;8.50;100.00;98384.25;4883612;29;20064;-78
2021/11/08 13:22:29;;;;;;;3.38;1.92;;;;;;;8.50;100.00;98389.72;4912197;29;20026;-80